Latest Weather Observations for Brisbane

IDQ60901

Issued at 9:21 am EST Monday 20 February 2017 (issued every 10 minutes, with the page automatically refreshed every 10 minutes)

About weather observations | Map of Brisbane area stations | Latest observations for Brisbane area | Other Formats
Station Details ID: 040913 Name: BRISBANE Lat: -27.48 Lon: 153.04 Height: 8.13 m
Data from the previous 72 hours. | See also: Recent months at Brisbane
Date/Time
EST
Temp
°C
App
Temp
°C
Dew
Point
°C
Rel
Hum
%
Delta-T
°C
Wind Press
QNH
hPa
Press
MSL
hPa
Rain since
9am
mm
Dir  Spd
km/h
Gust
km/h
Spd
kts
Gust
kts
20/09:00am 25.8 28.1 19.4 67 4.1 WSW 6 11 3 6 1011.7 1011.7 15.2
20/08:30am 24.8 27.1 19.4 72 3.5 WSW 6 9 3 5 1011.8 1011.8 15.2
20/08:00am 24.3 27.0 20.2 78 2.7 WSW 6 11 3 6 1011.5 1011.5 15.2
20/07:30am 23.8 26.4 20.1 80 2.4 WSW 6 9 3 5 1011.2 1011.2 15.2
20/07:00am 23.3 26.3 20.1 82 2.1 W 4 7 2 4 1010.9 1010.9 15.2
20/06:30am 23.0 26.8 20.9 88 1.4 SSE 2 6 1 3 1010.4 1010.3 15.2
20/06:00am 21.7 25.4 20.0 90 1.1 CALM 0 0 0 0 1009.7 1009.6 15.2
20/05:30am 21.9 25.2 20.0 89 1.2 SSW 2 7 1 4 1009.0 1008.9 15.2
20/05:00am 22.1 25.1 20.0 88 1.4 SW 4 7 2 4 1008.5 1008.4 15.2
20/04:30am 22.3 24.9 20.0 87 1.5 W 6 9 3 5 1008.2 1008.1 15.2
20/04:00am 22.5 24.9 20.0 86 1.6 WSW 7 15 4 8 1007.6 1007.5 15.2
20/03:30am 22.6 26.8 20.9 90 1.1 CALM 0 4 0 2 1007.0 1006.9 15.2
20/03:00am 22.6 26.6 20.5 88 1.4 CALM 0 4 0 2 1007.1 1007.0 15.2
20/02:30am 22.8 26.5 20.7 88 1.4 N 2 4 1 2 1007.0 1006.9 15.2
20/02:00am 22.8 25.7 20.7 88 1.4 WNW 6 9 3 5 1007.8 1007.7 15.2
20/01:30am 22.8 25.8 20.9 89 1.2 WSW 6 13 3 7 1008.2 1008.1 15.2
20/01:00am 22.9 25.9 20.8 88 1.4 SW 6 9 3 5 1008.6 1008.5 15.2
20/12:30am 22.9 26.1 21.2 90 1.1 WSW 6 9 3 5 1009.2 1009.1 15.2
20/12:00am 22.9 26.2 21.4 91 1.0 SW 6 11 3 6 1009.2 1009.1 15.2
 
Date/Time
EST
Temp
°C
App
Temp
°C
Dew
Point
°C
Rel
Hum
%
Delta-T
°C
Wind Press
QNH
hPa
Press
MSL
hPa
Rain since
9am
mm
Dir  Spd
km/h
Gust
km/h
Spd
kts
Gust
kts
19/11:30pm 22.3 25.2 20.6 90 1.1 W 6 9 3 5 1009.7 1009.6 15.2
19/11:00pm 22.3 25.6 20.0 87 1.5 WSW 2 4 1 2 1009.5 1009.4 15.0
19/10:30pm 23.1 26.1 20.8 87 1.5 NNW 6 9 3 5 1009.8 1009.7 14.0
19/10:00pm 24.7 28.3 22.4 87 1.5 NW 7 13 4 7 1009.6 1009.5 4.2
19/09:30pm 24.4 28.9 22.3 88 1.4 WNW 2 7 1 4 1009.0 1008.9 4.2
19/09:00pm 24.5 29.0 22.2 87 1.5 E 2 6 1 3 1009.0 1008.9 4.2
19/08:30pm 24.5 28.8 22.0 86 1.7 N 2 6 1 3 1008.8 1008.7 4.2
19/08:00pm 24.6 28.9 21.9 85 1.8 NE 2 4 1 2 1008.5 1008.4 4.2
19/07:30pm 24.5 29.6 22.6 89 1.3 CALM 0 4 0 2 1007.8 1007.7 4.2
19/07:00pm 24.6 28.8 22.5 88 1.4 NNE 4 9 2 5 1007.8 1007.7 4.2
19/06:30pm 24.8 29.3 22.3 86 1.7 WNW 2 6 1 3 1007.7 1007.6 4.2
19/06:00pm 25.8 29.9 22.9 84 2.0 NE 6 9 3 5 1007.4 1007.3 2.4
19/05:30pm 26.4 31.0 22.5 79 2.6 N 2 6 1 3 1006.5 1006.4 1.6
19/05:00pm 26.5 32.0 23.4 83 2.1 CALM 0 0 0 0 1005.8 1005.7 1.4
19/04:30pm 26.8 31.1 22.0 75 3.2 NNE 2 4 1 2 1006.0 1005.9 1.2
19/04:00pm 27.8 30.9 21.1 67 4.5 NNE 6 9 3 5 1006.3 1006.2 0.2
19/03:30pm 30.7 33.8 19.4 51 7.4 S 2 7 1 4 1005.9 1005.8 0.0
19/03:00pm 31.2 33.8 19.2 48 7.9 W 4 9 2 5 1006.1 1006.0 0.0
19/02:30pm 31.3 33.7 19.6 49 7.7 NW 6 11 3 6 1006.0 1005.9 0.0
19/02:00pm 32.3 35.6 19.9 48 8.2 NW 2 7 1 4 1006.0 1005.9 0.0
19/01:30pm 31.9 34.6 19.5 47 8.1 SSW 4 7 2 4 1006.1 1006.0 0.0
19/01:00pm 32.3 35.6 19.9 48 8.2 NW 2 6 1 3 1006.4 1006.3 0.0
19/12:30pm 32.9 35.3 20.1 47 8.5 S 7 13 4 7 1006.6 1006.5 0.0
19/12:00pm 33.0 35.2 18.4 42 9.5 SSE 4 9 2 5 1006.8 1006.7 0.0
19/11:30am 33.0 35.0 19.1 43 9.1 NE 7 13 4 7 1007.2 1007.1 0.0
19/11:00am 31.5 33.8 18.5 46 8.4 ENE 4 9 2 5 1007.3 1007.2 0.0
19/10:30am 31.2 33.2 19.2 48 7.8 NW 7 13 4 7 1007.7 1007.6 0.0
19/10:00am 31.0 34.0 20.0 52 7.3 NE 4 9 2 5 1008.0 1007.9 0.0
19/09:30am 30.0 32.7 20.3 56 6.4 NNE 6 13 3 7 1008.2 1008.1 0.0
19/09:00am 28.2 30.9 20.2 62 5.3 NNW 6 9 3 5 1008.3 1008.2 1.2
19/08:30am 26.3 28.8 19.9 68 4.2 NNW 6 9 3 5 1008.4 1008.3 1.2
19/08:00am 25.1 27.6 19.9 73 3.4 NNW 6 9 3 5 1008.6 1008.5 1.2
19/07:30am 24.1 27.3 19.8 77 2.8 N 2 6 1 3 1008.5 1008.4 1.2
19/07:00am 23.7 26.6 19.8 79 2.5 N 4 6 2 3 1008.6 1008.5 1.2
19/06:30am 23.5 26.5 20.0 81 2.3 NNW 4 6 2 3 1008.7 1008.6 1.2
19/06:00am 23.4 26.0 20.0 81 2.2 NW 6 11 3 6 1008.6 1008.5 1.2
19/05:30am 22.9 26.3 20.1 84 1.8 NNW 2 6 1 3 1008.5 1008.4 1.2
19/05:00am 22.8 25.8 20.1 85 1.7 WNW 4 9 2 5 1008.5 1008.4 1.2
19/04:30am 22.7 25.9 20.6 88 1.4 WNW 4 9 2 5 1008.3 1008.2 1.2
19/04:00am 22.6 25.4 20.5 88 1.4 WSW 6 9 3 5 1008.3 1008.2 1.2
19/03:30am 22.8 25.4 20.5 87 1.5 WSW 7 13 4 7 1008.8 1008.7 1.2
19/03:00am 23.1 25.9 20.8 87 1.5 W 7 15 4 8 1009.3 1009.2 1.2
19/02:30am 23.3 26.1 20.8 86 1.6 W 7 17 4 9 1009.4 1009.3 1.2
19/02:00am 23.7 27.1 21.0 85 1.8 SW 4 15 2 8 1009.3 1009.2 1.2
19/01:30am 25.2 28.1 21.1 78 2.7 W 7 17 4 9 1009.5 1009.4 0.0
19/01:00am 25.8 28.8 20.8 74 3.3 NNW 6 11 3 6 1009.4 1009.3 0.0
19/12:30am 25.9 29.2 20.7 73 3.4 NNW 4 7 2 4 1009.6 1009.5 0.0
19/12:00am 26.0 29.0 20.8 73 3.4 N 6 13 3 7 1009.2 1009.1 0.0
 
Date/Time
EST
Temp
°C
App
Temp
°C
Dew
Point
°C
Rel
Hum
%
Delta-T
°C
Wind Press
QNH
hPa
Press
MSL
hPa
Rain since
9am
mm
Dir  Spd
km/h
Gust
km/h
Spd
kts
Gust
kts
18/11:30pm 26.0 28.9 21.0 74 3.3 NNE 7 17 4 9 1008.8 1008.7 0.0
18/11:00pm 26.1 29.1 21.3 75 3.2 NNE 7 20 4 11 1008.9 1008.8 0.0
18/10:30pm 26.3 28.6 21.3 74 3.3 N 11 20 6 11 1008.6 1008.5 0.0
18/10:00pm 26.4 29.4 21.2 73 3.4 NNE 7 17 4 9 1008.5 1008.4 0.0
18/09:30pm 26.5 29.0 21.0 72 3.6 NNE 9 20 5 11 1008.5 1008.4 0.0
18/09:00pm 26.5 29.6 21.0 72 3.6 NNE 6 13 3 7 1008.3 1008.2 0.0
18/08:30pm 26.6 28.8 21.1 72 3.6 NNE 11 24 6 13 1008.3 1008.2 0.0
18/08:00pm 26.6 29.0 20.9 71 3.8 NNE 9 20 5 11 1008.1 1008.0 0.0
18/07:30pm 26.6 29.0 20.9 71 3.8 NE 9 22 5 12 1007.7 1007.6 0.0
18/07:00pm 26.7 28.7 20.8 70 3.9 NNE 11 28 6 15 1007.4 1007.3 0.0
18/06:30pm 26.9 28.4 20.5 68 4.2 NE 13 28 7 15 1007.2 1007.1 0.0
18/06:00pm 27.4 28.3 20.0 64 4.8 NE 15 28 8 15 1007.0 1006.9 0.0
18/05:30pm 28.1 29.0 19.3 58 5.7 NNE 13 24 7 13 1007.1 1007.0 0.0
18/05:00pm 28.9 29.5 18.7 54 6.6 NE 13 26 7 14 1007.3 1007.2 0.0
18/04:30pm 29.3 29.6 18.7 52 6.8 NE 15 24 8 13 1007.4 1007.3 0.0
18/04:00pm 30.0 30.3 18.8 51 7.3 NE 15 28 8 15 1007.7 1007.6 0.0
18/03:30pm 30.3 30.5 17.7 46 8.0 NE 13 24 7 13 1007.9 1007.8 0.0
18/03:00pm 30.9 30.6 16.5 42 9.1 NE 13 24 7 13 1008.0 1007.9 0.0
18/02:30pm 30.9 30.5 16.1 41 9.2 NE 13 26 7 14 1008.3 1008.2 0.0
18/02:00pm 31.6 32.0 18.2 44 8.6 NE 13 24 7 13 1008.6 1008.5 0.0
18/01:30pm 31.8 33.1 19.4 47 8.1 ENE 11 20 6 11 1008.9 1008.8 0.0
18/01:00pm 30.4 30.7 18.8 50 7.5 ENE 15 26 8 14 1009.2 1009.1 0.0
18/12:30pm 30.8 31.0 18.5 47 7.9 ENE 15 28 8 15 1009.5 1009.4 0.0
18/12:00pm 31.4 33.4 19.1 48 8.0 NNE 7 17 4 9 1010.0 1009.9 0.0
18/11:30am 30.5 31.1 17.6 46 8.2 NE 11 17 6 9 1010.2 1010.1 0.0
18/11:00am 30.4 30.9 17.5 46 8.2 NE 11 20 6 11 1010.7 1010.7 0.0
18/10:30am 29.9 30.5 17.7 48 7.8 ENE 11 20 6 11 1011.2 1011.2 0.0
18/10:00am 29.9 31.3 17.4 47 7.9 NNE 6 9 3 5 1011.5 1011.5 0.0
18/09:30am 29.5 30.8 17.0 47 7.9 N 6 11 3 6 1011.8 1011.8 0.0
18/09:00am 28.9 30.3 17.4 49 7.3 N 6 9 3 5 1012.1 1012.1 0.0
18/08:30am 27.3 29.3 17.8 56 6.0 N 4 9 2 5 1012.3 1012.3 0.0
18/08:00am 27.3 29.5 18.3 58 5.7 N 4 11 2 6 1012.5 1012.5 0.0
18/07:30am 26.4 28.6 18.3 61 5.1 NNW 4 11 2 6 1012.5 1012.5 0.0
18/07:00am 24.6 26.5 18.5 69 3.9 NW 6 9 3 5 1012.6 1012.6 0.0
18/06:30am 23.4 25.2 18.7 75 3.0 WNW 7 13 4 7 1012.5 1012.5 0.0
18/06:00am 23.3 25.0 18.4 74 3.1 NNW 7 17 4 9 1011.9 1011.9 0.0
18/05:30am 23.9 25.9 18.8 73 3.2 N 6 13 3 7 1011.1 1011.1 0.0
18/05:00am 23.9 26.3 18.8 73 3.2 N 4 9 2 5 1011.2 1011.2 0.0
18/04:30am 23.9 26.3 18.8 73 3.2 NE 4 9 2 5 1011.1 1011.1 0.0
18/04:00am 23.7 26.0 18.6 73 3.2 NE 4 7 2 4 1011.5 1011.5 0.0
18/03:30am 23.4 25.3 18.5 74 3.1 E 6 7 3 4 1011.7 1011.7 0.0
18/03:00am 23.5 25.8 18.6 74 3.1 ESE 4 6 2 3 1012.5 1012.5 0.0
18/02:30am 23.4 26.3 18.3 73 3.2 CALM 0 0 0 0 1013.1 1013.1 0.0
18/02:00am 23.9 26.2 18.5 72 3.4 ESE 4 7 2 4 1013.5 1013.5 0.0
18/01:30am 24.0 26.6 18.4 71 3.5 SW 2 6 1 3 1014.1 1014.1 0.0
18/01:00am 24.2 26.1 18.6 71 3.5 W 6 7 3 4 1014.1 1014.1 0.0
18/12:30am 24.3 26.0 18.5 70 3.7 NNW 7 15 4 8 1013.6 1013.6 0.0
18/12:00am 24.4 26.7 18.6 70 3.7 NNE 4 11 2 6 1013.6 1013.6 0.0
 
Date/Time
EST
Temp
°C
App
Temp
°C
Dew
Point
°C
Rel
Hum
%
Delta-T
°C
Wind Press
QNH
hPa
Press
MSL
hPa
Rain since
9am
mm
Dir  Spd
km/h
Gust
km/h
Spd
kts
Gust
kts
17/11:30pm 24.7 27.1 18.9 70 3.7 NNW 4 13 2 7 1013.7 1013.7 0.0
17/11:00pm 24.8 26.8 18.7 69 3.9 NNE 6 9 3 5 1013.7 1013.7 0.0
17/10:30pm 25.1 27.0 18.5 67 4.2 N 6 11 3 6 1013.7 1013.7 0.0
17/10:00pm 25.0 27.4 18.7 68 4.0 N 4 9 2 5 1013.7 1013.7 0.0
17/09:30pm 25.2 27.3 18.9 68 4.0 NE 6 11 3 6 1013.3 1013.3 0.0
17/09:00pm 25.2 27.1 18.9 68 4.0 NE 7 17 4 9 1013.1 1013.1 0.0
17/08:30pm 25.3 27.1 18.7 67 4.2 NE 7 20 4 11 1012.9 1012.9 0.0
17/08:00pm 25.6 27.1 19.0 67 4.2 NE 9 19 5 10 1012.6 1012.6 0.0
17/07:30pm 25.7 27.9 19.1 67 4.2 NNE 6 15 3 8 1012.5 1012.5 0.0
17/07:00pm 26.3 28.4 19.4 66 4.5 NE 7 17 4 9 1011.9 1011.9 0.0
17/06:30pm 26.8 28.2 18.6 60 5.2 NE 9 17 5 9 1011.8 1011.8 0.0
17/06:00pm 27.5 27.9 18.2 57 5.9 ENE 13 20 7 11 1011.6 1011.6 0.0
17/05:30pm 28.3 28.9 18.7 56 6.2 NE 13 24 7 13 1011.7 1011.7 0.0
17/05:00pm 29.0 30.2 19.0 54 6.5 ENE 11 22 6 12 1011.6 1011.6 0.0
17/04:30pm 29.6 30.4 19.0 53 6.9 ENE 13 20 7 11 1011.6 1011.6 0.0
17/04:00pm 30.5 31.5 18.6 49 7.7 ENE 11 17 6 9 1011.7 1011.7 0.0
17/03:30pm 30.3 31.1 18.1 48 7.8 NE 11 20 6 11 1011.8 1011.8 0.0
17/03:00pm 30.4 31.0 17.8 46 8.0 NE 11 19 6 10 1012.0 1012.0 0.0
17/02:30pm 30.6 31.5 18.3 47 7.9 ENE 11 20 6 11 1012.2 1012.2 0.0
17/02:00pm 30.6 31.7 18.0 47 8.1 NE 9 19 5 10 1012.5 1012.5 0.0
17/01:30pm 30.6 31.7 18.0 47 8.1 ENE 9 17 5 9 1013.0 1013.0 0.0
17/01:00pm 31.2 32.9 18.5 46 8.2 NE 7 17 4 9 1013.3 1013.3 0.0
17/12:30pm 30.2 31.9 18.6 49 7.5 E 7 15 4 8 1013.5 1013.5 0.0
17/12:00pm 30.6 32.8 19.3 51 7.4 N 6 17 3 9 1013.9 1013.9 0.0
17/11:30am 29.8 31.4 18.3 50 7.4 E 7 13 4 7 1014.3 1014.3 0.0
17/11:00am 28.4 29.9 17.6 52 6.8 ENE 6 11 3 6 1014.9 1014.9 0.0
17/10:30am 29.1 30.4 17.6 50 7.3 ENE 7 15 4 8 1015.2 1015.2 0.0
17/10:00am 28.3 30.4 18.1 54 6.5 WNW 4 9 2 5 1015.5 1015.5 0.0
17/09:30am 27.9 30.5 18.3 56 6.1 NNW 2 6 1 3 1015.7 1015.7 0.0

Latest Capital City Observations: Canberra | Sydney | Melbourne | Brisbane | Adelaide | Perth | Hobart | Darwin

Other Formats:

Comma delimited format used in spreadsheet applications
http://www.bom.gov.au/fwo/IDQ60901/IDQ60901.94576.axf

JavaScript Object Notation format (JSON) in row-major order
http://www.bom.gov.au/fwo/IDQ60901/IDQ60901.94576.json